sensor_id;sensor_type;location;lat;lon;timestamp;P1;durP1;ratioP1;P2;durP2;ratioP2
44120;SDS011;29783;52.504;13.478;2023-07-29T00:16:47;15.35;;;11.15;;
44120;SDS011;29783;52.504;13.478;2023-07-29T00:19:12;15.82;;;13.30;;
44120;SDS011;29783;52.504;13.478;2023-07-29T00:21:38;21.15;;;13.52;;
44120;SDS011;29783;52.504;13.478;2023-07-29T00:24:04;16.15;;;14.45;;
44120;SDS011;29783;52.504;13.478;2023-07-29T00:26:29;14.77;;;12.60;;
44120;SDS011;29783;52.504;13.478;2023-07-29T00:28:56;14.65;;;12.77;;
44120;SDS011;29783;52.504;13.478;2023-07-29T00:31:22;17.65;;;13.98;;
44120;SDS011;29783;52.504;13.478;2023-07-29T00:33:48;17.08;;;14.15;;
44120;SDS011;29783;52.504;13.478;2023-07-29T00:36:14;18.25;;;14.00;;
44120;SDS011;29783;52.504;13.478;2023-07-29T00:38:40;27.85;;;15.23;;
44120;SDS011;29783;52.504;13.478;2023-07-29T00:41:08;19.05;;;14.00;;
44120;SDS011;29783;52.504;13.478;2023-07-29T00:43:38;18.45;;;13.95;;
44120;SDS011;29783;52.504;13.478;2023-07-29T00:46:08;26.83;;;14.65;;
44120;SDS011;29783;52.504;13.478;2023-07-29T01:04:07;21.48;;;14.10;;
44120;SDS011;29783;52.504;13.478;2023-07-29T01:12:53;17.30;;;13.65;;
44120;SDS011;29783;52.504;13.478;2023-07-29T01:15:16;24.60;;;14.95;;
44120;SDS011;29783;52.504;13.478;2023-07-29T01:17:42;16.50;;;14.52;;
44120;SDS011;29783;52.504;13.478;2023-07-29T01:20:14;20.10;;;14.60;;
44120;SDS011;29783;52.504;13.478;2023-07-29T01:22:41;20.02;;;15.20;;
44120;SDS011;29783;52.504;13.478;2023-07-29T01:25:07;21.00;;;15.45;;
44120;SDS011;29783;52.504;13.478;2023-07-29T01:27:33;17.55;;;15.75;;
44120;SDS011;29783;52.504;13.478;2023-07-29T01:29:59;19.23;;;16.05;;
44120;SDS011;29783;52.504;13.478;2023-07-29T01:32:29;22.95;;;16.52;;
44120;SDS011;29783;52.504;13.478;2023-07-29T01:35:00;30.73;;;16.08;;
44120;SDS011;29783;52.504;13.478;2023-07-29T01:37:33;17.42;;;15.60;;
44120;SDS011;29783;52.504;13.478;2023-07-29T01:40:00;21.23;;;15.60;;
44120;SDS011;29783;52.504;13.478;2023-07-29T01:42:27;20.27;;;15.82;;
44120;SDS011;29783;52.504;13.478;2023-07-29T01:44:54;18.90;;;14.23;;
44120;SDS011;29783;52.504;13.478;2023-07-29T01:47:21;21.98;;;14.25;;
44120;SDS011;29783;52.504;13.478;2023-07-29T01:49:47;28.88;;;15.80;;
44120;SDS011;29783;52.504;13.478;2023-07-29T01:52:13;24.05;;;17.20;;
44120;SDS011;29783;52.504;13.478;2023-07-29T01:54:39;21.02;;;15.60;;
44120;SDS011;29783;52.504;13.478;2023-07-29T01:57:04;26.60;;;16.10;;
44120;SDS011;29783;52.504;13.478;2023-07-29T01:59:30;23.00;;;16.95;;
44120;SDS011;29783;52.504;13.478;2023-07-29T02:01:56;21.50;;;15.57;;
44120;SDS011;29783;52.504;13.478;2023-07-29T02:04:21;18.25;;;15.65;;
44120;SDS011;29783;52.504;13.478;2023-07-29T02:06:47;17.98;;;15.02;;
44120;SDS011;29783;52.504;13.478;2023-07-29T02:09:13;20.25;;;15.57;;
44120;SDS011;29783;52.504;13.478;2023-07-29T02:11:38;28.42;;;16.13;;
44120;SDS011;29783;52.504;13.478;2023-07-29T02:14:04;20.73;;;16.83;;
44120;SDS011;29783;52.504;13.478;2023-07-29T02:16:30;19.75;;;15.85;;
44120;SDS011;29783;52.504;13.478;2023-07-29T02:18:59;20.42;;;15.32;;
44120;SDS011;29783;52.504;13.478;2023-07-29T02:21:25;23.85;;;16.25;;
44120;SDS011;29783;52.504;13.478;2023-07-29T02:23:50;23.02;;;16.08;;
44120;SDS011;29783;52.504;13.478;2023-07-29T02:26:16;20.33;;;15.85;;
44120;SDS011;29783;52.504;13.478;2023-07-29T02:28:42;19.85;;;16.17;;
44120;SDS011;29783;52.504;13.478;2023-07-29T02:31:15;25.20;;;17.45;;
44120;SDS011;29783;52.504;13.478;2023-07-29T02:33:41;18.10;;;15.45;;
44120;SDS011;29783;52.504;13.478;2023-07-29T02:36:07;18.98;;;15.32;;
44120;SDS011;29783;52.504;13.478;2023-07-29T02:38:33;19.33;;;15.82;;
44120;SDS011;29783;52.504;13.478;2023-07-29T02:40:59;19.10;;;15.55;;
44120;SDS011;29783;52.504;13.478;2023-07-29T02:43:25;19.52;;;16.05;;
44120;SDS011;29783;52.504;13.478;2023-07-29T02:45:50;17.77;;;15.35;;
44120;SDS011;29783;52.504;13.478;2023-07-29T02:48:16;26.58;;;17.75;;
44120;SDS011;29783;52.504;13.478;2023-07-29T02:50:42;26.90;;;17.77;;
44120;SDS011;29783;52.504;13.478;2023-07-29T02:53:08;25.38;;;17.10;;
44120;SDS011;29783;52.504;13.478;2023-07-29T02:55:34;23.05;;;16.73;;
44120;SDS011;29783;52.504;13.478;2023-07-29T02:57:59;31.75;;;19.00;;
44120;SDS011;29783;52.504;13.478;2023-07-29T03:00:25;23.05;;;17.70;;
44120;SDS011;29783;52.504;13.478;2023-07-29T03:02:50;29.13;;;21.20;;
44120;SDS011;29783;52.504;13.478;2023-07-29T03:05:16;29.17;;;21.52;;
44120;SDS011;29783;52.504;13.478;2023-07-29T03:07:43;28.55;;;18.83;;
44120;SDS011;29783;52.504;13.478;2023-07-29T03:10:10;23.23;;;18.20;;
44120;SDS011;29783;52.504;13.478;2023-07-29T03:12:36;32.42;;;19.30;;
44120;SDS011;29783;52.504;13.478;2023-07-29T03:15:01;22.08;;;17.83;;
44120;SDS011;29783;52.504;13.478;2023-07-29T03:17:28;22.00;;;18.75;;
44120;SDS011;29783;52.504;13.478;2023-07-29T03:19:54;25.75;;;18.65;;
44120;SDS011;29783;52.504;13.478;2023-07-29T03:22:21;23.92;;;16.73;;
44120;SDS011;29783;52.504;13.478;2023-07-29T03:24:47;22.95;;;17.33;;
44120;SDS011;29783;52.504;13.478;2023-07-29T03:27:14;22.13;;;16.92;;
44120;SDS011;29783;52.504;13.478;2023-07-29T03:29:41;25.13;;;18.48;;
44120;SDS011;29783;52.504;13.478;2023-07-29T03:32:06;19.88;;;16.88;;
44120;SDS011;29783;52.504;13.478;2023-07-29T03:34:34;22.48;;;17.13;;
44120;SDS011;29783;52.504;13.478;2023-07-29T03:37:00;22.85;;;17.25;;
44120;SDS011;29783;52.504;13.478;2023-07-29T03:39:26;20.30;;;16.75;;
44120;SDS011;29783;52.504;13.478;2023-07-29T03:41:52;28.52;;;16.17;;
44120;SDS011;29783;52.504;13.478;2023-07-29T03:44:18;18.67;;;16.10;;
44120;SDS011;29783;52.504;13.478;2023-07-29T03:46:47;18.38;;;14.70;;
44120;SDS011;29783;52.504;13.478;2023-07-29T04:27:59;15.27;;;11.90;;
44120;SDS011;29783;52.504;13.478;2023-07-29T04:30:24;20.73;;;11.35;;
44120;SDS011;29783;52.504;13.478;2023-07-29T04:32:50;13.35;;;10.80;;
44120;SDS011;29783;52.504;13.478;2023-07-29T04:35:17;16.15;;;11.50;;
44120;SDS011;29783;52.504;13.478;2023-07-29T04:37:42;14.20;;;10.45;;
44120;SDS011;29783;52.504;13.478;2023-07-29T04:40:09;11.85;;;10.75;;
44120;SDS011;29783;52.504;13.478;2023-07-29T04:42:37;11.45;;;10.25;;
44120;SDS011;29783;52.504;13.478;2023-07-29T04:45:06;11.02;;;8.95;;
44120;SDS011;29783;52.504;13.478;2023-07-29T05:17:12;9.95;;;8.70;;
44120;SDS011;29783;52.504;13.478;2023-07-29T05:19:45;13.45;;;8.23;;
44120;SDS011;29783;52.504;13.478;2023-07-29T05:22:12;12.18;;;7.68;;
44120;SDS011;29783;52.504;13.478;2023-07-29T05:24:39;8.32;;;7.43;;
44120;SDS011;29783;52.504;13.478;2023-07-29T05:27:05;8.32;;;7.53;;
44120;SDS011;29783;52.504;13.478;2023-07-29T05:29:30;11.15;;;7.13;;
44120;SDS011;29783;52.504;13.478;2023-07-29T05:31:56;8.77;;;6.65;;
44120;SDS011;29783;52.504;13.478;2023-07-29T05:34:22;12.63;;;6.38;;
44120;SDS011;29783;52.504;13.478;2023-07-29T05:36:47;14.77;;;6.60;;
44120;SDS011;29783;52.504;13.478;2023-07-29T05:39:13;7.38;;;5.80;;
44120;SDS011;29783;52.504;13.478;2023-07-29T05:41:39;6.57;;;5.50;;
44120;SDS011;29783;52.504;13.478;2023-07-29T05:44:04;6.90;;;5.90;;
44120;SDS011;29783;52.504;13.478;2023-07-29T05:46:31;8.02;;;5.40;;
44120;SDS011;29783;52.504;13.478;2023-07-29T06:11:07;5.72;;;4.35;;
44120;SDS011;29783;52.504;13.478;2023-07-29T06:13:32;4.90;;;4.40;;
44120;SDS011;29783;52.504;13.478;2023-07-29T06:15:58;7.93;;;4.47;;
44120;SDS011;29783;52.504;13.478;2023-07-29T06:18:24;9.98;;;3.90;;
44120;SDS011;29783;52.504;13.478;2023-07-29T06:20:50;4.45;;;3.80;;
44120;SDS011;29783;52.504;13.478;2023-07-29T06:23:16;4.43;;;4.03;;
44120;SDS011;29783;52.504;13.478;2023-07-29T06:25:41;4.53;;;3.97;;
44120;SDS011;29783;52.504;13.478;2023-07-29T06:28:08;6.90;;;3.90;;
44120;SDS011;29783;52.504;13.478;2023-07-29T06:30:34;6.75;;;3.63;;
44120;SDS011;29783;52.504;13.478;2023-07-29T06:33:01;3.92;;;3.53;;
44120;SDS011;29783;52.504;13.478;2023-07-29T06:35:28;5.32;;;3.72;;
44120;SDS011;29783;52.504;13.478;2023-07-29T06:37:54;4.15;;;3.75;;
44120;SDS011;29783;52.504;13.478;2023-07-29T06:40:20;4.88;;;3.63;;
44120;SDS011;29783;52.504;13.478;2023-07-29T06:42:45;4.47;;;3.38;;
44120;SDS011;29783;52.504;13.478;2023-07-29T06:45:11;4.68;;;3.58;;
44120;SDS011;29783;52.504;13.478;2023-07-29T06:47:37;4.30;;;3.90;;
44120;SDS011;29783;52.504;13.478;2023-07-29T06:50:03;4.03;;;3.22;;
44120;SDS011;29783;52.504;13.478;2023-07-29T06:52:30;10.50;;;3.63;;
44120;SDS011;29783;52.504;13.478;2023-07-29T06:54:57;7.88;;;3.33;;
44120;SDS011;29783;52.504;13.478;2023-07-29T06:57:23;4.28;;;2.92;;
44120;SDS011;29783;52.504;13.478;2023-07-29T06:59:48;4.43;;;3.17;;
44120;SDS011;29783;52.504;13.478;2023-07-29T07:02:14;7.63;;;3.03;;
44120;SDS011;29783;52.504;13.478;2023-07-29T07:04:40;8.80;;;2.70;;
44120;SDS011;29783;52.504;13.478;2023-07-29T07:07:05;8.98;;;2.90;;
44120;SDS011;29783;52.504;13.478;2023-07-29T07:09:31;4.50;;;2.85;;
44120;SDS011;29783;52.504;13.478;2023-07-29T07:11:56;4.88;;;3.08;;
44120;SDS011;29783;52.504;13.478;2023-07-29T07:14:22;5.53;;;3.17;;
44120;SDS011;29783;52.504;13.478;2023-07-29T07:16:48;5.20;;;3.13;;
44120;SDS011;29783;52.504;13.478;2023-07-29T07:19:14;5.13;;;3.05;;
44120;SDS011;29783;52.504;13.478;2023-07-29T07:21:41;8.13;;;3.10;;
44120;SDS011;29783;52.504;13.478;2023-07-29T07:24:07;7.30;;;2.70;;
44120;SDS011;29783;52.504;13.478;2023-07-29T07:26:33;5.57;;;3.03;;
44120;SDS011;29783;52.504;13.478;2023-07-29T07:28:58;4.97;;;3.30;;
44120;SDS011;29783;52.504;13.478;2023-07-29T07:31:24;5.10;;;2.95;;
44120;SDS011;29783;52.504;13.478;2023-07-29T07:33:49;4.05;;;2.55;;
44120;SDS011;29783;52.504;13.478;2023-07-29T07:36:15;4.63;;;2.97;;
44120;SDS011;29783;52.504;13.478;2023-07-29T07:38:41;9.43;;;3.10;;
44120;SDS011;29783;52.504;13.478;2023-07-29T07:41:06;4.60;;;2.95;;
44120;SDS011;29783;52.504;13.478;2023-07-29T07:43:32;3.20;;;2.90;;
44120;SDS011;29783;52.504;13.478;2023-07-29T07:45:58;3.08;;;2.70;;
44120;SDS011;29783;52.504;13.478;2023-07-29T07:48:25;6.95;;;2.75;;
44120;SDS011;29783;52.504;13.478;2023-07-29T07:50:51;5.95;;;2.90;;
44120;SDS011;29783;52.504;13.478;2023-07-29T07:53:17;4.55;;;3.00;;
44120;SDS011;29783;52.504;13.478;2023-07-29T07:55:43;9.18;;;3.03;;
44120;SDS011;29783;52.504;13.478;2023-07-29T07:58:08;4.88;;;2.88;;
44120;SDS011;29783;52.504;13.478;2023-07-29T08:00:34;3.92;;;2.83;;
44120;SDS011;29783;52.504;13.478;2023-07-29T08:03:00;4.63;;;2.58;;
44120;SDS011;29783;52.504;13.478;2023-07-29T08:05:25;4.97;;;3.22;;
44120;SDS011;29783;52.504;13.478;2023-07-29T08:07:51;4.18;;;2.63;;
44120;SDS011;29783;52.504;13.478;2023-07-29T08:10:17;4.50;;;2.72;;
44120;SDS011;29783;52.504;13.478;2023-07-29T08:12:42;3.05;;;2.70;;
44120;SDS011;29783;52.504;13.478;2023-07-29T08:15:08;3.80;;;2.72;;
44120;SDS011;29783;52.504;13.478;2023-07-29T08:17:33;3.47;;;2.50;;
44120;SDS011;29783;52.504;13.478;2023-07-29T08:19:59;6.18;;;2.45;;
44120;SDS011;29783;52.504;13.478;2023-07-29T08:22:26;2.88;;;2.45;;
44120;SDS011;29783;52.504;13.478;2023-07-29T08:24:52;2.28;;;2.08;;
44120;SDS011;29783;52.504;13.478;2023-07-29T08:27:17;3.50;;;2.30;;
44120;SDS011;29783;52.504;13.478;2023-07-29T08:29:43;2.58;;;2.22;;
44120;SDS011;29783;52.504;13.478;2023-07-29T08:32:08;3.88;;;2.53;;
44120;SDS011;29783;52.504;13.478;2023-07-29T08:34:34;7.63;;;2.28;;
44120;SDS011;29783;52.504;13.478;2023-07-29T08:37:00;4.85;;;2.10;;
44120;SDS011;29783;52.504;13.478;2023-07-29T08:39:26;2.25;;;2.00;;
44120;SDS011;29783;52.504;13.478;2023-07-29T08:42:07;4.72;;;2.00;;
44120;SDS011;29783;52.504;13.478;2023-07-29T08:44:36;3.00;;;2.20;;
44120;SDS011;29783;52.504;13.478;2023-07-29T08:47:06;10.45;;;2.30;;
44120;SDS011;29783;52.504;13.478;2023-07-29T08:49:33;5.07;;;2.72;;
44120;SDS011;29783;52.504;13.478;2023-07-29T08:52:00;4.18;;;1.83;;
44120;SDS011;29783;52.504;13.478;2023-07-29T08:54:26;6.85;;;2.10;;
44120;SDS011;29783;52.504;13.478;2023-07-29T08:56:52;2.08;;;1.60;;
44120;SDS011;29783;52.504;13.478;2023-07-29T08:59:18;3.45;;;2.08;;
44120;SDS011;29783;52.504;13.478;2023-07-29T09:01:44;3.58;;;2.00;;
44120;SDS011;29783;52.504;13.478;2023-07-29T09:04:11;2.65;;;2.00;;
44120;SDS011;29783;52.504;13.478;2023-07-29T09:06:37;2.00;;;1.90;;
44120;SDS011;29783;52.504;13.478;2023-07-29T09:09:04;8.50;;;2.00;;
44120;SDS011;29783;52.504;13.478;2023-07-29T09:11:32;4.47;;;1.98;;
44120;SDS011;29783;52.504;13.478;2023-07-29T09:13:58;2.60;;;1.70;;
44120;SDS011;29783;52.504;13.478;2023-07-29T09:16:24;1.60;;;1.50;;
44120;SDS011;29783;52.504;13.478;2023-07-29T09:18:50;1.88;;;1.70;;
44120;SDS011;29783;52.504;13.478;2023-07-29T09:21:23;2.00;;;1.70;;
44120;SDS011;29783;52.504;13.478;2023-07-29T09:23:54;1.90;;;1.70;;
44120;SDS011;29783;52.504;13.478;2023-07-29T09:26:24;3.17;;;1.48;;
44120;SDS011;29783;52.504;13.478;2023-07-29T09:28:54;2.83;;;1.48;;
44120;SDS011;29783;52.504;13.478;2023-07-29T09:31:21;1.80;;;1.58;;
44120;SDS011;29783;52.504;13.478;2023-07-29T09:33:48;5.55;;;1.70;;
44120;SDS011;29783;52.504;13.478;2023-07-29T09:36:14;1.80;;;1.40;;
44120;SDS011;29783;52.504;13.478;2023-07-29T09:38:40;1.88;;;1.45;;
44120;SDS011;29783;52.504;13.478;2023-07-29T09:41:06;2.67;;;1.60;;
44120;SDS011;29783;52.504;13.478;2023-07-29T09:43:32;3.90;;;1.23;;
44120;SDS011;29783;52.504;13.478;2023-07-29T09:46:02;1.83;;;1.38;;
44120;SDS011;29783;52.504;13.478;2023-07-29T09:48:33;1.55;;;1.45;;
44120;SDS011;29783;52.504;13.478;2023-07-29T09:51:09;1.40;;;1.15;;
44120;SDS011;29783;52.504;13.478;2023-07-29T09:53:47;2.08;;;1.50;;
44120;SDS011;29783;52.504;13.478;2023-07-29T09:56:16;6.38;;;1.60;;
44120;SDS011;29783;52.504;13.478;2023-07-29T09:58:44;2.35;;;1.50;;
44120;SDS011;29783;52.504;13.478;2023-07-29T10:01:10;5.15;;;1.08;;
44120;SDS011;29783;52.504;13.478;2023-07-29T10:03:36;1.33;;;1.23;;
44120;SDS011;29783;52.504;13.478;2023-07-29T10:06:03;7.95;;;1.55;;
44120;SDS011;29783;52.504;13.478;2023-07-29T10:08:29;2.00;;;1.40;;
44120;SDS011;29783;52.504;13.478;2023-07-29T10:11:01;2.25;;;1.30;;
44120;SDS011;29783;52.504;13.478;2023-07-29T10:13:27;4.05;;;1.10;;
44120;SDS011;29783;52.504;13.478;2023-07-29T10:15:53;2.47;;;1.23;;
44120;SDS011;29783;52.504;13.478;2023-07-29T10:18:21;1.90;;;1.27;;
44120;SDS011;29783;52.504;13.478;2023-07-29T10:20:48;8.38;;;1.42;;
44120;SDS011;29783;52.504;13.478;2023-07-29T10:23:17;1.80;;;1.25;;
44120;SDS011;29783;52.504;13.478;2023-07-29T10:25:46;1.85;;;1.02;;
44120;SDS011;29783;52.504;13.478;2023-07-29T10:28:18;6.35;;;1.10;;
44120;SDS011;29783;52.504;13.478;2023-07-29T10:30:50;0.93;;;0.93;;
44120;SDS011;29783;52.504;13.478;2023-07-29T10:33:17;1.60;;;1.00;;
44120;SDS011;29783;52.504;13.478;2023-07-29T10:35:43;2.65;;;1.25;;
44120;SDS011;29783;52.504;13.478;2023-07-29T10:38:09;5.28;;;1.40;;
44120;SDS011;29783;52.504;13.478;2023-07-29T10:40:45;2.70;;;1.17;;
44120;SDS011;29783;52.504;13.478;2023-07-29T10:46:19;2.65;;;1.17;;
44120;SDS011;29783;52.504;13.478;2023-07-29T10:48:55;1.40;;;0.80;;
44120;SDS011;29783;52.504;13.478;2023-07-29T10:54:13;2.63;;;0.95;;
44120;SDS011;29783;52.504;13.478;2023-07-29T10:56:58;4.53;;;0.90;;
44120;SDS011;29783;52.504;13.478;2023-07-29T10:59:34;1.50;;;0.90;;
44120;SDS011;29783;52.504;13.478;2023-07-29T11:02:01;5.88;;;0.88;;
44120;SDS011;29783;52.504;13.478;2023-07-29T11:04:45;2.22;;;1.00;;
44120;SDS011;29783;52.504;13.478;2023-07-29T11:10:01;2.45;;;1.15;;
44120;SDS011;29783;52.504;13.478;2023-07-29T11:20:16;6.15;;;1.17;;
44120;SDS011;29783;52.504;13.478;2023-07-29T11:22:42;3.55;;;1.05;;
44120;SDS011;29783;52.504;13.478;2023-07-29T11:25:11;20.23;;;1.50;;
44120;SDS011;29783;52.504;13.478;2023-07-29T11:27:39;23.13;;;1.42;;
44120;SDS011;29783;52.504;13.478;2023-07-29T11:30:14;13.18;;;2.30;;
44120;SDS011;29783;52.504;13.478;2023-07-29T11:32:42;6.57;;;1.67;;
44120;SDS011;29783;52.504;13.478;2023-07-29T11:35:09;3.80;;;1.60;;
44120;SDS011;29783;52.504;13.478;2023-07-29T11:37:37;3.85;;;1.70;;
44120;SDS011;29783;52.504;13.478;2023-07-29T11:40:04;6.10;;;1.48;;
44120;SDS011;29783;52.504;13.478;2023-07-29T11:42:32;2.63;;;0.85;;
44120;SDS011;29783;52.504;13.478;2023-07-29T11:45:01;2.17;;;0.80;;
44120;SDS011;29783;52.504;13.478;2023-07-29T11:47:29;4.95;;;0.90;;
44120;SDS011;29783;52.504;13.478;2023-07-29T11:49:57;3.90;;;0.75;;
44120;SDS011;29783;52.504;13.478;2023-07-29T11:52:25;1.55;;;0.57;;
44120;SDS011;29783;52.504;13.478;2023-07-29T11:54:52;2.17;;;0.90;;
44120;SDS011;29783;52.504;13.478;2023-07-29T11:57:18;1.73;;;0.60;;
44120;SDS011;29783;52.504;13.478;2023-07-29T11:59:44;1.55;;;0.65;;
44120;SDS011;29783;52.504;13.478;2023-07-29T12:02:12;3.95;;;0.98;;
44120;SDS011;29783;52.504;13.478;2023-07-29T12:04:40;3.58;;;0.50;;
44120;SDS011;29783;52.504;13.478;2023-07-29T12:07:07;3.25;;;1.02;;
44120;SDS011;29783;52.504;13.478;2023-07-29T12:09:33;2.45;;;0.90;;
44120;SDS011;29783;52.504;13.478;2023-07-29T12:12:00;3.75;;;0.98;;
44120;SDS011;29783;52.504;13.478;2023-07-29T12:14:30;3.03;;;1.13;;
44120;SDS011;29783;52.504;13.478;2023-07-29T12:16:56;1.85;;;0.95;;
44120;SDS011;29783;52.504;13.478;2023-07-29T12:19:36;2.03;;;1.00;;
44120;SDS011;29783;52.504;13.478;2023-07-29T12:22:03;1.27;;;0.90;;
44120;SDS011;29783;52.504;13.478;2023-07-29T12:24:31;2.00;;;0.73;;
44120;SDS011;29783;52.504;13.478;2023-07-29T12:26:58;5.13;;;1.05;;
44120;SDS011;29783;52.504;13.478;2023-07-29T12:29:24;4.88;;;1.20;;
44120;SDS011;29783;52.504;13.478;2023-07-29T12:31:57;5.72;;;1.52;;
44120;SDS011;29783;52.504;13.478;2023-07-29T12:34:27;1.88;;;1.10;;
44120;SDS011;29783;52.504;13.478;2023-07-29T12:36:56;7.43;;;1.70;;
44120;SDS011;29783;52.504;13.478;2023-07-29T12:39:27;5.47;;;1.48;;
44120;SDS011;29783;52.504;13.478;2023-07-29T12:41:55;2.20;;;1.20;;
44120;SDS011;29783;52.504;13.478;2023-07-29T12:44:23;3.00;;;1.70;;
44120;SDS011;29783;52.504;13.478;2023-07-29T12:46:49;2.78;;;1.38;;
44120;SDS011;29783;52.504;13.478;2023-07-29T12:49:15;2.72;;;1.67;;
44120;SDS011;29783;52.504;13.478;2023-07-29T12:51:40;2.20;;;1.58;;
44120;SDS011;29783;52.504;13.478;2023-07-29T12:54:06;2.83;;;1.33;;
44120;SDS011;29783;52.504;13.478;2023-07-29T12:56:32;2.72;;;1.40;;
44120;SDS011;29783;52.504;13.478;2023-07-29T12:58:58;2.35;;;1.50;;
44120;SDS011;29783;52.504;13.478;2023-07-29T13:01:25;2.05;;;1.08;;
44120;SDS011;29783;52.504;13.478;2023-07-29T13:03:51;0.90;;;0.88;;
44120;SDS011;29783;52.504;13.478;2023-07-29T13:06:16;7.28;;;1.30;;
44120;SDS011;29783;52.504;13.478;2023-07-29T13:08:42;2.63;;;1.20;;
44120;SDS011;29783;52.504;13.478;2023-07-29T13:11:09;1.50;;;1.08;;
44120;SDS011;29783;52.504;13.478;2023-07-29T13:13:36;2.50;;;1.45;;
44120;SDS011;29783;52.504;13.478;2023-07-29T13:16:02;2.20;;;1.30;;
44120;SDS011;29783;52.504;13.478;2023-07-29T13:18:29;2.88;;;1.20;;
44120;SDS011;29783;52.504;13.478;2023-07-29T13:20:55;2.88;;;1.42;;
44120;SDS011;29783;52.504;13.478;2023-07-29T13:23:22;1.58;;;1.40;;
44120;SDS011;29783;52.504;13.478;2023-07-29T13:25:49;1.92;;;1.40;;
44120;SDS011;29783;52.504;13.478;2023-07-29T13:28:17;1.75;;;1.33;;
44120;SDS011;29783;52.504;13.478;2023-07-29T13:30:44;5.75;;;1.50;;
44120;SDS011;29783;52.504;13.478;2023-07-29T13:33:10;2.05;;;1.33;;
44120;SDS011;29783;52.504;13.478;2023-07-29T13:35:35;1.27;;;1.17;;
44120;SDS011;29783;52.504;13.478;2023-07-29T13:38:01;3.70;;;1.33;;
44120;SDS011;29783;52.504;13.478;2023-07-29T13:40:28;1.73;;;1.42;;
44120;SDS011;29783;52.504;13.478;2023-07-29T13:42:54;3.17;;;1.45;;
44120;SDS011;29783;52.504;13.478;2023-07-29T13:45:20;3.13;;;1.33;;
44120;SDS011;29783;52.504;13.478;2023-07-29T13:47:48;2.90;;;1.20;;
44120;SDS011;29783;52.504;13.478;2023-07-29T13:50:15;2.33;;;1.20;;
44120;SDS011;29783;52.504;13.478;2023-07-29T13:52:42;1.80;;;1.30;;
44120;SDS011;29783;52.504;13.478;2023-07-29T13:55:09;5.25;;;1.30;;
44120;SDS011;29783;52.504;13.478;2023-07-29T13:57:36;3.65;;;1.00;;
44120;SDS011;29783;52.504;13.478;2023-07-29T14:00:05;1.92;;;1.00;;
44120;SDS011;29783;52.504;13.478;2023-07-29T14:02:31;1.48;;;0.88;;
44120;SDS011;29783;52.504;13.478;2023-07-29T14:04:57;1.45;;;1.08;;
44120;SDS011;29783;52.504;13.478;2023-07-29T14:07:22;0.90;;;0.82;;
44120;SDS011;29783;52.504;13.478;2023-07-29T14:09:49;0.90;;;0.63;;
44120;SDS011;29783;52.504;13.478;2023-07-29T14:12:15;1.38;;;0.80;;
44120;SDS011;29783;52.504;13.478;2023-07-29T14:14:41;3.08;;;0.90;;
44120;SDS011;29783;52.504;13.478;2023-07-29T14:17:07;1.60;;;0.60;;
44120;SDS011;29783;52.504;13.478;2023-07-29T14:19:36;1.60;;;0.90;;
44120;SDS011;29783;52.504;13.478;2023-07-29T14:22:02;0.52;;;0.50;;
44120;SDS011;29783;52.504;13.478;2023-07-29T14:24:28;1.00;;;0.65;;
44120;SDS011;29783;52.504;13.478;2023-07-29T14:26:53;1.67;;;0.90;;
44120;SDS011;29783;52.504;13.478;2023-07-29T14:29:19;1.50;;;0.73;;
44120;SDS011;29783;52.504;13.478;2023-07-29T14:31:45;1.58;;;0.70;;
44120;SDS011;29783;52.504;13.478;2023-07-29T14:34:10;1.92;;;0.77;;
44120;SDS011;29783;52.504;13.478;2023-07-29T14:36:36;1.17;;;0.80;;
44120;SDS011;29783;52.504;13.478;2023-07-29T14:39:02;1.10;;;0.55;;
44120;SDS011;29783;52.504;13.478;2023-07-29T14:41:28;1.10;;;0.60;;
44120;SDS011;29783;52.504;13.478;2023-07-29T14:43:55;1.15;;;0.70;;
44120;SDS011;29783;52.504;13.478;2023-07-29T14:46:21;1.02;;;0.70;;
44120;SDS011;29783;52.504;13.478;2023-07-29T14:48:47;2.25;;;0.70;;
44120;SDS011;29783;52.504;13.478;2023-07-29T14:51:13;1.63;;;0.90;;
44120;SDS011;29783;52.504;13.478;2023-07-29T14:53:39;4.43;;;0.80;;
44120;SDS011;29783;52.504;13.478;2023-07-29T14:56:06;1.25;;;0.80;;
44120;SDS011;29783;52.504;13.478;2023-07-29T14:58:32;0.77;;;0.70;;
44120;SDS011;29783;52.504;13.478;2023-07-29T15:00:59;1.17;;;0.82;;
44120;SDS011;29783;52.504;13.478;2023-07-29T15:03:25;2.42;;;0.80;;
44120;SDS011;29783;52.504;13.478;2023-07-29T15:05:50;6.32;;;0.90;;
44120;SDS011;29783;52.504;13.478;2023-07-29T15:08:16;0.80;;;0.80;;
44120;SDS011;29783;52.504;13.478;2023-07-29T15:10:49;5.25;;;1.05;;
44120;SDS011;29783;52.504;13.478;2023-07-29T15:13:15;1.17;;;0.88;;
44120;SDS011;29783;52.504;13.478;2023-07-29T15:15:41;1.20;;;1.08;;
44120;SDS011;29783;52.504;13.478;2023-07-29T15:18:08;3.80;;;0.88;;
44120;SDS011;29783;52.504;13.478;2023-07-29T15:20:40;1.67;;;0.80;;
44120;SDS011;29783;52.504;13.478;2023-07-29T15:23:09;4.70;;;0.80;;
44120;SDS011;29783;52.504;13.478;2023-07-29T15:25:34;1.35;;;0.90;;
44120;SDS011;29783;52.504;13.478;2023-07-29T15:28:01;4.22;;;1.10;;
44120;SDS011;29783;52.504;13.478;2023-07-29T15:30:27;3.72;;;1.10;;
44120;SDS011;29783;52.504;13.478;2023-07-29T15:32:53;2.40;;;1.08;;
44120;SDS011;29783;52.504;13.478;2023-07-29T15:35:18;1.27;;;0.98;;
44120;SDS011;29783;52.504;13.478;2023-07-29T15:37:46;2.97;;;1.08;;
44120;SDS011;29783;52.504;13.478;2023-07-29T15:40:14;0.98;;;0.82;;
44120;SDS011;29783;52.504;13.478;2023-07-29T15:42:41;6.18;;;0.75;;
44120;SDS011;29783;52.504;13.478;2023-07-29T15:45:08;12.05;;;0.90;;
44120;SDS011;29783;52.504;13.478;2023-07-29T15:47:49;23.10;;;1.73;;
44120;SDS011;29783;52.504;13.478;2023-07-29T15:50:17;22.73;;;1.60;;
44120;SDS011;29783;52.504;13.478;2023-07-29T15:52:43;6.07;;;1.90;;
44120;SDS011;29783;52.504;13.478;2023-07-29T15:55:08;3.58;;;1.88;;
44120;SDS011;29783;52.504;13.478;2023-07-29T15:57:34;5.90;;;1.80;;
44120;SDS011;29783;52.504;13.478;2023-07-29T16:00:00;3.40;;;1.60;;
44120;SDS011;29783;52.504;13.478;2023-07-29T16:02:26;2.72;;;1.10;;
44120;SDS011;29783;52.504;13.478;2023-07-29T16:04:53;6.78;;;1.70;;
44120;SDS011;29783;52.504;13.478;2023-07-29T16:07:22;3.13;;;1.58;;
44120;SDS011;29783;52.504;13.478;2023-07-29T16:09:48;4.22;;;1.40;;
44120;SDS011;29783;52.504;13.478;2023-07-29T16:12:13;2.42;;;1.45;;
44120;SDS011;29783;52.504;13.478;2023-07-29T16:14:39;1.52;;;1.27;;
44120;SDS011;29783;52.504;13.478;2023-07-29T16:17:05;3.40;;;1.65;;
44120;SDS011;29783;52.504;13.478;2023-07-29T16:19:32;2.88;;;1.40;;
44120;SDS011;29783;52.504;13.478;2023-07-29T16:21:57;2.25;;;1.10;;
44120;SDS011;29783;52.504;13.478;2023-07-29T16:24:24;2.15;;;1.30;;
44120;SDS011;29783;52.504;13.478;2023-07-29T16:26:50;2.25;;;1.40;;
44120;SDS011;29783;52.504;13.478;2023-07-29T16:29:15;2.72;;;1.83;;
44120;SDS011;29783;52.504;13.478;2023-07-29T16:31:41;3.35;;;2.45;;
44120;SDS011;29783;52.504;13.478;2023-07-29T16:34:07;6.10;;;2.63;;
44120;SDS011;29783;52.504;13.478;2023-07-29T16:36:32;4.47;;;2.00;;
44120;SDS011;29783;52.504;13.478;2023-07-29T16:38:58;3.60;;;2.60;;
44120;SDS011;29783;52.504;13.478;2023-07-29T16:41:23;3.60;;;2.40;;
44120;SDS011;29783;52.504;13.478;2023-07-29T16:43:49;2.83;;;1.90;;
44120;SDS011;29783;52.504;13.478;2023-07-29T16:46:15;5.10;;;2.35;;
44120;SDS011;29783;52.504;13.478;2023-07-29T16:48:40;5.80;;;2.13;;
44120;SDS011;29783;52.504;13.478;2023-07-29T16:51:06;4.43;;;2.83;;